アロフィ の空港の天気 - METARとTAF

ニウエ国際空港 ( NIUE / IUE ) - ニウエ アロフィ
飛行場実況気象(Metar)
観測時間05/25 21:00 NUT (05/26 08:00 UTC)
風向・風速南南東 1m/s
視程-
天気現象
-
気温19℃
湿度94%
気圧1017hPa
METARNIUE 260800Z AUTO 16001KT //// // ///////// 19/18 Q1017
過去の天気等 Google飛行場航空写真 Wunderground天気予報

過去48時間のMETAR

飛行場予報(TAF)
データがありません